Time;durP1;ratioP1;P1;durP2;ratioP2;P2;SDS_P1;SDS_P2;PMS_P1;PMS_P2;Temp;Humidity;BMP_temperature;BMP_pressure;BME280_temperature;BME280_humidity;BME280_pressure;Samples;Min_cycle;Max_cycle;Signal;HPM_P1;HPM_P2
2022/03/14 00:01:31;;;;;;;1.98;0.98;;;;;;;10.51;76.48;101417.09;5078692;28;20040;-71
2022/03/14 00:03:59;;;;;;;2.13;1.05;;;;;;;10.60;75.49;101413.84;5076594;28;20584;-72
2022/03/14 00:06:26;;;;;;;1.38;0.90;;;;;;;10.65;75.60;101414.34;5078603;28;20040;-73
2022/03/14 00:08:55;;;;;;;1.75;0.80;;;;;;;10.62;76.15;101419.84;5077080;28;20140;-72
2022/03/14 00:11:23;;;;;;;1.50;0.98;;;;;;;10.60;76.45;101426.97;5076525;28;20044;-73
2022/03/14 00:13:51;;;;;;;1.85;0.88;;;;;;;10.60;75.79;101422.56;5076731;28;20036;-72
2022/03/14 00:16:23;;;;;;;1.42;0.82;;;;;;;10.62;76.76;101419.84;5075644;28;20515;-73
2022/03/14 00:18:51;;;;;;;2.38;1.10;;;;;;;10.64;75.84;101425.81;5078079;28;20124;-74
2022/03/14 00:21:21;;;;;;;2.03;1.15;;;;;;;10.66;76.45;101422.16;5074602;28;20093;-72
2022/03/14 00:23:48;;;;;;;1.40;0.90;;;;;;;10.73;75.13;101433.91;5078726;28;20093;-74
2022/03/14 00:26:15;;;;;;;2.80;1.00;;;;;;;10.75;75.48;101433.81;5083413;28;20129;-71
2022/03/14 00:28:42;;;;;;;1.27;0.77;;;;;;;10.76;75.16;101443.38;5095463;28;20099;-72
2022/03/14 00:31:10;;;;;;;1.23;0.75;;;;;;;10.81;75.41;101443.88;5092482;28;20036;-71
2022/03/14 00:33:39;;;;;;;1.55;1.00;;;;;;;10.91;74.30;101452.81;5088977;28;20043;-72
2022/03/14 00:36:08;;;;;;;1.63;0.93;;;;;;;10.91;74.56;101452.81;5076528;28;20044;-72
2022/03/14 00:38:36;;;;;;;1.25;0.70;;;;;;;10.97;74.07;101447.13;5076393;28;20056;-72
2022/03/14 00:41:03;;;;;;;1.23;0.82;;;;;;;11.04;73.13;101451.88;5075600;28;20052;-73
2022/03/14 00:43:30;;;;;;;1.55;0.95;;;;;;;11.08;72.70;101455.13;5074980;28;20076;-73
2022/03/14 00:45:57;;;;;;;1.45;0.80;;;;;;;11.07;73.18;101453.44;5074789;28;20040;-72
2022/03/14 00:48:25;;;;;;;1.38;0.80;;;;;;;11.06;73.33;101464.91;5072895;28;20176;-72
2022/03/14 00:50:52;;;;;;;1.13;0.68;;;;;;;11.15;72.04;101462.50;5074709;28;20056;-72
2022/03/14 00:53:19;;;;;;;1.38;0.68;;;;;;;11.08;72.49;101447.22;5075699;28;20040;-73
2022/03/14 00:55:45;;;;;;;2.47;0.60;;;;;;;11.14;71.67;101459.94;5079835;28;20040;-73
2022/03/14 00:58:12;;;;;;;0.77;0.47;;;;;;;11.20;71.15;101469.09;5073716;28;20129;-72
2022/03/14 01:00:39;;;;;;;1.77;1.00;;;;;;;11.18;71.81;101461.44;5070066;28;20044;-71
2022/03/14 01:03:05;;;;;;;1.48;0.85;;;;;;;11.10;71.62;101469.00;5080679;28;20097;-72
2022/03/14 01:05:34;;;;;;;1.33;0.85;;;;;;;11.05;72.25;101473.72;5077721;28;20047;-72
2022/03/14 01:08:00;;;;;;;1.42;0.98;;;;;;;11.01;72.88;101481.00;5077243;28;20126;-73
2022/03/14 01:10:28;;;;;;;1.20;0.65;;;;;;;10.98;72.09;101483.84;5087719;28;20048;-72
2022/03/14 01:12:54;;;;;;;1.50;0.65;;;;;;;11.07;72.34;101482.34;5075219;28;20040;-72
2022/03/14 01:15:21;;;;;;;1.00;0.70;;;;;;;11.08;72.28;101489.31;5079375;28;20464;-72
2022/03/14 01:17:47;;;;;;;1.23;0.57;;;;;;;11.07;72.48;101485.00;5094646;28;20048;-72
2022/03/14 01:20:14;;;;;;;1.08;0.70;;;;;;;11.09;71.76;101483.09;5080547;28;20048;-72
2022/03/14 01:22:43;;;;;;;1.35;0.85;;;;;;;11.03;72.73;101488.78;5074181;28;20040;-71
2022/03/14 01:25:10;;;;;;;1.30;0.70;;;;;;;11.05;72.68;101497.41;5069826;28;20044;-72
2022/03/14 01:27:37;;;;;;;1.30;0.68;;;;;;;10.98;72.94;101499.63;5077207;28;20056;-72
2022/03/14 01:30:04;;;;;;;1.15;0.75;;;;;;;10.98;73.06;101504.03;5071258;28;20048;-72
2022/03/14 01:32:31;;;;;;;1.25;0.88;;;;;;;10.96;73.31;101504.13;5078922;28;20090;-73
2022/03/14 01:34:58;;;;;;;1.50;0.80;;;;;;;10.90;72.45;101499.31;5092986;28;20072;-72
2022/03/14 01:37:24;;;;;;;1.90;0.88;;;;;;;10.98;72.95;101522.44;5077937;28;20036;-71
2022/03/14 01:39:52;;;;;;;1.20;0.80;;;;;;;10.99;73.15;101513.59;5072490;28;20044;-73
2022/03/14 01:42:20;;;;;;;1.15;0.70;;;;;;;11.01;72.31;101516.97;5074992;28;20093;-71
2022/03/14 01:44:48;;;;;;;1.15;0.65;;;;;;;10.94;73.17;101515.72;5078959;28;20071;-72
2022/03/14 01:47:15;;;;;;;1.48;0.80;;;;;;;10.98;72.67;101517.16;5092371;28;20079;-72
2022/03/14 01:49:42;;;;;;;6.07;0.80;;;;;;;10.90;74.21;101511.59;5079119;28;20150;-71
2022/03/14 01:52:08;;;;;;;5.63;1.10;;;;;;;10.83;74.36;101518.22;5078038;28;20048;-73
2022/03/14 01:54:35;;;;;;;1.67;0.73;;;;;;;10.70;75.74;101510.31;5079071;28;20453;-73
2022/03/14 01:57:04;;;;;;;1.50;0.95;;;;;;;10.64;76.76;101517.75;5071952;28;20439;-71
2022/03/14 01:59:31;;;;;;;1.70;1.00;;;;;;;10.61;76.81;101515.38;5092383;28;20078;-72
2022/03/14 02:01:57;;;;;;;1.27;0.80;;;;;;;10.54;77.21;101521.97;5076333;28;20044;-72
2022/03/14 02:04:24;;;;;;;0.63;0.43;;;;;;;10.58;77.32;101518.19;5076267;28;20124;-72
2022/03/14 02:06:53;;;;;;;1.60;1.02;;;;;;;10.55;77.23;101523.63;5076011;28;20050;-73
2022/03/14 02:09:19;;;;;;;1.85;0.82;;;;;;;10.52;77.35;101521.22;5076076;28;20096;-71
2022/03/14 02:11:52;;;;;;;1.83;0.98;;;;;;;10.50;77.95;101528.38;5072650;28;20044;-71
2022/03/14 02:14:20;;;;;;;1.77;0.82;;;;;;;10.55;77.83;101528.88;5078387;28;20040;-72
2022/03/14 02:16:47;;;;;;;1.05;0.70;;;;;;;10.60;77.09;101511.88;5081650;28;20052;-72
2022/03/14 02:19:14;;;;;;;1.92;1.10;;;;;;;10.61;77.30;101515.38;5082506;28;20055;-72
2022/03/14 02:21:42;;;;;;;1.13;0.77;;;;;;;10.57;77.55;101521.75;5079735;28;20040;-72
2022/03/14 02:24:09;;;;;;;1.05;0.55;;;;;;;10.55;77.37;101528.88;5077821;28;20044;-74
2022/03/14 02:26:39;;;;;;;1.73;1.02;;;;;;;10.56;77.62;101530.56;5077698;28;20067;-73
2022/03/14 02:29:06;;;;;;;1.20;0.70;;;;;;;10.56;77.62;101533.19;5074705;28;20044;-73
2022/03/14 02:31:36;;;;;;;1.27;0.82;;;;;;;10.55;77.67;101534.13;5081011;28;20051;-73
2022/03/14 02:34:03;;;;;;;1.00;0.63;;;;;;;10.66;77.01;101536.91;5074695;28;20048;-72
2022/03/14 02:36:30;;;;;;;2.25;0.90;;;;;;;10.61;76.77;101542.47;5070677;28;20123;-71
2022/03/14 02:38:58;;;;;;;1.75;0.75;;;;;;;10.61;76.45;101539.00;5086867;28;20135;-70
2022/03/14 02:41:24;;;;;;;1.73;0.98;;;;;;;10.60;77.20;101547.84;5085171;28;20548;-72
2022/03/14 02:43:51;;;;;;;2.20;1.00;;;;;;;10.55;77.44;101550.75;5094254;28;20042;-73
2022/03/14 02:46:22;;;;;;;2.33;1.25;;;;;;;10.35;78.82;101545.13;5092776;28;20060;-73
2022/03/14 02:48:52;;;;;;;1.30;0.75;;;;;;;10.15;80.92;101561.31;5084681;28;20093;-73
2022/03/14 02:51:22;;;;;;;2.08;1.10;;;;;;;10.03;82.09;101562.13;5084491;28;20052;-71
2022/03/14 02:54:10;;;;;;;1.52;1.08;;;;;;;9.89;83.38;101564.72;5081985;28;20059;-72
2022/03/14 02:56:43;;;;;;;1.17;0.88;;;;;;;9.88;84.42;101570.94;5078962;28;20398;-74
2022/03/14 02:59:11;;;;;;;2.42;1.00;;;;;;;9.77;85.46;101569.91;5079470;28;20048;-74
2022/03/14 03:01:39;;;;;;;1.25;0.70;;;;;;;9.69;86.13;101585.28;5074979;28;20044;-72
2022/03/14 03:04:09;;;;;;;1.13;0.73;;;;;;;9.63;85.67;101583.91;5079135;28;20491;-73
2022/03/14 03:06:44;;;;;;;1.42;0.77;;;;;;;9.70;85.48;101585.22;5090646;28;20131;-71
2022/03/14 03:09:31;;;;;;;1.20;0.75;;;;;;;9.77;85.90;101599.63;5098757;28;20051;-72
2022/03/14 03:11:59;;;;;;;1.45;1.00;;;;;;;9.72;85.66;101598.22;5091722;28;20036;-73
2022/03/14 03:14:38;;;;;;;1.90;1.10;;;;;;;9.75;85.56;101604.13;5080139;28;20055;-72
2022/03/14 03:17:08;;;;;;;1.60;0.98;;;;;;;9.84;85.15;101611.44;5076814;28;20667;-71
2022/03/14 03:19:39;;;;;;;1.95;1.23;;;;;;;9.89;84.73;101611.97;5072626;28;20110;-72
2022/03/14 03:22:08;;;;;;;5.40;1.35;;;;;;;9.97;83.77;101622.00;5074369;28;20059;-73
2022/03/14 03:24:39;;;;;;;1.83;1.23;;;;;;;10.05;83.46;101622.41;5073067;28;20048;-73
2022/03/14 03:27:08;;;;;;;1.33;0.88;;;;;;;10.09;83.05;101630.00;5075328;28;20109;-73
2022/03/14 03:29:38;;;;;;;2.78;1.30;;;;;;;10.12;83.50;101629.81;5076519;28;20036;-73
2022/03/14 03:32:08;;;;;;;1.30;0.98;;;;;;;10.11;82.59;101629.88;5075296;28;20533;-73
2022/03/14 03:34:45;;;;;;;1.83;1.10;;;;;;;10.09;82.91;101640.50;5075403;28;20036;-73
2022/03/14 03:37:13;;;;;;;1.40;0.98;;;;;;;10.12;83.49;101647.31;5079980;28;20052;-72
2022/03/14 03:39:42;;;;;;;2.33;1.10;;;;;;;10.16;82.73;101652.28;5082450;28;20406;-72
2022/03/14 03:42:09;;;;;;;1.65;0.98;;;;;;;10.15;83.49;101657.66;5072225;28;20072;-73
2022/03/14 03:44:43;;;;;;;1.90;1.10;;;;;;;10.15;83.34;101650.59;5080453;28;20119;-72
2022/03/14 03:47:14;;;;;;;9.23;1.00;;;;;;;10.19;83.24;101661.75;5070562;28;20506;-72
2022/03/14 03:49:45;;;;;;;1.65;1.00;;;;;;;10.24;82.82;101665.78;5074712;28;20082;-73
2022/03/14 03:52:15;;;;;;;1.45;0.90;;;;;;;10.26;81.65;101669.16;5071997;28;20105;-71
2022/03/14 03:54:43;;;;;;;0.95;0.70;;;;;;;10.27;82.55;101686.59;5080112;28;20052;-74
2022/03/14 03:57:12;;;;;;;1.15;0.60;;;;;;;10.28;79.03;101685.66;5078043;28;20070;-71
2022/03/14 03:59:47;;;;;;;1.50;1.00;;;;;;;10.28;80.09;101697.94;5071540;28;20048;-73
2022/03/14 04:02:19;;;;;;;1.23;0.88;;;;;;;10.24;78.14;101692.03;5075497;28;20097;-71
2022/03/14 04:04:48;;;;;;;1.05;0.68;;;;;;;10.21;78.40;101702.75;5074411;28;20124;-74
2022/03/14 04:07:20;;;;;;;1.70;0.80;;;;;;;10.14;79.00;101706.66;5075031;28;20102;-73
2022/03/14 04:09:49;;;;;;;1.17;0.90;;;;;;;10.11;78.08;101709.50;5078322;28;20138;-72
2022/03/14 04:12:17;;;;;;;1.30;0.95;;;;;;;10.07;79.32;101715.88;5077867;28;20063;-73
2022/03/14 04:14:52;;;;;;;1.08;0.70;;;;;;;10.05;78.15;101717.78;5073566;28;20063;-72
2022/03/14 04:17:38;;;;;;;1.60;0.82;;;;;;;10.05;79.04;101722.16;5067751;28;20105;-72
2022/03/14 04:20:06;;;;;;;2.63;0.90;;;;;;;10.06;78.08;101729.09;5071791;28;20479;-71
2022/03/14 04:22:37;;;;;;;1.65;0.90;;;;;;;10.01;78.76;101736.41;5073729;28;20036;-73
2022/03/14 04:25:11;;;;;;;7.13;0.88;;;;;;;9.97;78.38;101735.69;5073707;28;20123;-74
2022/03/14 04:27:37;;;;;;;0.65;0.50;;;;;;;9.99;78.50;101733.03;5079422;28;20043;-71
2022/03/14 04:30:05;;;;;;;1.23;0.85;;;;;;;9.97;78.49;101740.94;5082274;28;20518;-72
2022/03/14 04:32:42;;;;;;;1.63;0.75;;;;;;;9.92;78.58;101748.28;5075705;28;20036;-72
2022/03/14 04:35:09;;;;;;;1.42;1.13;;;;;;;9.90;77.77;101749.31;5081308;28;20044;-71
2022/03/14 04:37:40;;;;;;;1.58;0.85;;;;;;;9.86;77.99;101750.41;5078778;28;20089;-72
2022/03/14 04:40:12;;;;;;;1.40;0.90;;;;;;;9.79;78.79;101752.59;5072825;28;20080;-73
2022/03/14 04:42:40;;;;;;;1.23;0.73;;;;;;;9.76;79.71;101752.75;5076099;28;20032;-72
2022/03/14 04:45:09;;;;;;;2.72;1.45;;;;;;;9.76;79.43;101755.38;5083471;28;20093;-72
2022/03/14 04:47:36;;;;;;;1.60;0.90;;;;;;;9.72;80.66;101756.50;5083423;28;20040;-73
2022/03/14 04:50:11;;;;;;;1.95;1.35;;;;;;;9.68;81.05;101764.66;5077028;28;20044;-72
2022/03/14 04:52:39;;;;;;;4.15;1.45;;;;;;;9.61;80.89;101760.69;5082220;28;20047;-71
2022/03/14 04:59:57;;;;;;;1.38;0.98;;;;;;;9.54;83.16;101784.75;5099049;27;20158;-73
2022/03/14 05:02:24;;;;;;;2.03;1.20;;;;;;;9.45;83.29;101786.13;5093706;28;20089;-73
2022/03/14 05:04:58;;;;;;;2.90;1.30;;;;;;;9.40;83.60;101789.97;5098796;28;20452;-73
2022/03/14 05:07:28;;;;;;;3.45;0.95;;;;;;;9.36;84.05;101793.69;5096264;28;20050;-72
2022/03/14 05:09:59;;;;;;;2.47;0.98;;;;;;;9.34;84.68;101796.41;5093843;28;20495;-72
2022/03/14 05:12:32;;;;;;;2.22;1.55;;;;;;;9.32;84.42;101802.66;5093943;28;20166;-73
2022/03/14 05:15:01;;;;;;;3.80;1.50;;;;;;;9.34;84.97;101795.53;5098854;28;20043;-72
2022/03/14 05:17:30;;;;;;;1.60;1.20;;;;;;;9.38;85.17;101807.56;5088337;28;20063;-73
2022/03/14 05:19:57;;;;;;;3.63;1.30;;;;;;;9.39;83.21;101812.72;5094466;28;20042;-73
2022/03/14 05:22:43;;;;;;;5.45;1.13;;;;;;;9.37;84.29;101816.34;5092537;28;20422;-73
2022/03/14 05:25:10;;;;;;;2.25;1.38;;;;;;;9.37;85.12;101832.09;5066416;28;20077;-73
2022/03/14 05:27:47;;;;;;;2.58;1.00;;;;;;;9.40;83.35;101827.50;5093619;28;20028;-73
2022/03/14 05:30:18;;;;;;;4.07;1.85;;;;;;;9.38;83.98;101837.25;5088271;28;20075;-73
2022/03/14 05:32:48;;;;;;;1.20;1.05;;;;;;;9.40;84.47;101845.03;5091531;28;20055;-73
2022/03/14 05:35:18;;;;;;;2.22;1.35;;;;;;;9.38;84.64;101844.28;5096934;28;20035;-74
2022/03/14 05:37:48;;;;;;;2.65;1.63;;;;;;;9.40;83.24;101858.97;5075836;28;20444;-72
2022/03/14 05:40:20;;;;;;;3.00;1.80;;;;;;;9.41;83.72;101851.94;5087987;28;20078;-72
2022/03/14 05:42:58;;;;;;;5.65;2.03;;;;;;;9.46;82.68;101863.03;5091121;28;20054;-72
2022/03/14 05:45:26;;;;;;;4.18;2.08;;;;;;;9.44;84.06;101864.91;5097346;28;20058;-72
2022/03/14 05:47:52;;;;;;;1.90;1.25;;;;;;;9.43;83.80;101871.06;5105294;28;20062;-73
2022/03/14 05:50:20;;;;;;;2.60;1.95;;;;;;;9.42;83.40;101872.00;5093633;28;20103;-71
2022/03/14 05:52:55;;;;;;;2.13;1.65;;;;;;;9.43;83.66;101877.19;5096058;28;20050;-75
2022/03/14 05:55:35;;;;;;;2.75;1.95;;;;;;;9.39;84.67;101883.50;5075259;28;20078;-72
2022/03/14 05:58:05;;;;;;;2.85;1.92;;;;;;;9.36;84.35;101888.91;5090417;28;20048;-73
2022/03/14 06:00:37;;;;;;;2.15;1.58;;;;;;;9.39;83.64;101887.94;5071215;28;20054;-72
2022/03/14 06:03:04;;;;;;;3.33;1.77;;;;;;;9.38;84.68;101900.16;5090507;28;20043;-75
2022/03/14 06:05:38;;;;;;;3.28;2.03;;;;;;;9.38;84.13;101891.47;5091642;28;20048;-72
2022/03/14 06:08:05;;;;;;;9.73;2.22;;;;;;;9.34;84.51;101903.91;5090102;28;20133;-73
2022/03/14 06:10:32;;;;;;;3.58;2.00;;;;;;;9.32;85.13;101910.16;5081337;28;20040;-69
2022/03/14 06:13:08;;;;;;;7.82;2.88;;;;;;;9.31;84.70;101904.06;5076899;28;20094;-73
2022/03/14 06:15:35;;;;;;;2.13;1.70;;;;;;;9.32;85.50;101912.78;5079114;28;20054;-70
2022/03/14 06:18:10;;;;;;;3.88;2.78;;;;;;;9.28;85.24;101914.72;5077698;28;21163;-70
2022/03/14 06:20:37;;;;;;;4.47;2.08;;;;;;;9.29;84.89;101919.03;5072461;28;20101;-72
2022/03/14 06:23:09;;;;;;;3.17;1.83;;;;;;;9.36;85.64;101914.31;5083493;28;20692;-72
2022/03/14 06:25:54;;;;;;;6.25;3.40;;;;;;;9.36;85.62;101923.00;5081814;28;20046;-74
2022/03/14 06:28:23;;;;;;;3.15;2.20;;;;;;;9.37;85.43;101929.13;5066426;28;20137;-73
2022/03/14 06:31:09;;;;;;;6.10;2.67;;;;;;;9.38;85.31;101926.41;5074506;28;20044;-74
2022/03/14 06:33:38;;;;;;;6.97;2.58;;;;;;;9.45;84.98;101924.28;5072557;28;20071;-73
2022/03/14 06:36:10;;;;;;;9.68;2.75;;;;;;;9.47;84.64;101925.06;5071320;28;20051;-73
2022/03/14 06:38:45;;;;;;;10.60;2.28;;;;;;;9.50;84.27;101925.72;5062030;28;20449;-73
2022/03/14 06:41:14;;;;;;;4.03;2.50;;;;;;;9.53;83.90;101932.56;5059819;28;20415;-72
2022/03/14 06:43:41;;;;;;;2.88;1.92;;;;;;;9.49;84.90;101936.28;5074734;28;20048;-73
2022/03/14 06:46:09;;;;;;;7.57;2.60;;;;;;;9.53;84.78;101940.44;5073033;28;20051;-74
2022/03/14 06:48:41;;;;;;;8.35;2.30;;;;;;;9.58;83.65;101936.63;5074923;28;20051;-74
2022/03/14 06:51:08;;;;;;;3.72;2.47;;;;;;;9.58;84.53;101945.34;5079793;28;20075;-73
2022/03/14 06:53:44;;;;;;;4.90;2.80;;;;;;;9.59;84.73;101939.16;5078297;28;20044;-76
2022/03/14 06:56:17;;;;;;;4.97;2.42;;;;;;;9.61;84.48;101950.44;5069047;28;20048;-69
2022/03/14 06:58:47;;;;;;;3.00;2.42;;;;;;;9.66;83.71;101944.91;5068639;28;20053;-68
2022/03/14 07:01:32;;;;;;;3.85;2.33;;;;;;;9.67;83.23;101954.50;5070670;28;20032;-70
2022/03/14 07:04:05;;;;;;;6.97;2.40;;;;;;;9.73;83.41;101957.59;5058338;28;20127;-74
2022/03/14 07:06:32;;;;;;;3.72;2.10;;;;;;;9.76;83.82;101957.44;5047430;28;20925;-71
2022/03/14 07:08:58;;;;;;;3.83;2.40;;;;;;;9.80;82.55;101961.59;5079809;28;20121;-71
2022/03/14 07:11:34;;;;;;;2.58;2.10;;;;;;;9.86;82.49;101968.25;5083416;28;20049;-72
2022/03/14 07:14:08;;;;;;;5.05;2.72;;;;;;;9.92;83.23;101968.75;5086047;28;20048;-71
2022/03/14 07:16:35;;;;;;;5.63;3.35;;;;;;;9.91;81.77;101960.97;5080800;28;20036;-73
2022/03/14 07:19:06;;;;;;;6.28;2.40;;;;;;;9.90;81.94;101967.97;5079985;28;20483;-72
2022/03/14 07:21:34;;;;;;;9.77;3.22;;;;;;;9.99;81.85;101974.53;5053759;28;20394;-76
2022/03/14 07:24:05;;;;;;;3.22;2.38;;;;;;;10.03;82.34;101989.16;5076585;28;20048;-72
2022/03/14 07:26:35;;;;;;;6.85;2.17;;;;;;;10.07;82.01;101995.94;5081300;28;20046;-74
2022/03/14 07:29:08;;;;;;;2.95;2.35;;;;;;;10.11;82.12;101990.44;5074795;28;20083;-73
2022/03/14 07:31:37;;;;;;;8.00;3.15;;;;;;;10.14;81.53;102000.75;5074871;28;20093;-72
2022/03/14 07:34:08;;;;;;;3.60;2.70;;;;;;;10.09;81.19;102008.03;5081232;28;20131;-73
2022/03/14 07:36:40;;;;;;;;;;;;;;;10.12;81.20;102001.75;5080427;28;20040;-73
2022/03/14 07:39:09;;;;;;;3.85;2.38;;;;;;;10.19;81.58;102011.84;5080940;28;19924;-73
2022/03/14 07:41:36;;;;;;;3.95;2.50;;;;;;;10.19;81.17;102006.59;5079959;28;20461;-72
2022/03/14 07:44:08;;;;;;;8.27;2.88;;;;;;;10.21;80.39;102009.13;5062550;28;20435;-75
2022/03/14 07:46:38;;;;;;;3.28;1.40;;;;;;;10.18;80.84;102009.31;5060181;28;20044;-73
2022/03/14 07:49:10;;;;;;;5.22;2.40;;;;;;;10.26;80.51;102018.44;5076991;28;20043;-71
2022/03/14 07:51:39;;;;;;;4.18;2.03;;;;;;;10.26;80.33;102015.81;5080894;28;20039;-73
2022/03/14 07:54:08;;;;;;;5.30;2.72;;;;;;;10.33;80.77;102016.31;5076660;28;20044;-73
2022/03/14 07:56:40;;;;;;;4.47;2.10;;;;;;;10.33;80.27;102022.38;5081519;28;20036;-75
2022/03/14 07:59:09;;;;;;;3.95;2.17;;;;;;;10.39;78.81;102022.03;5074962;28;20512;-74
2022/03/14 08:01:36;;;;;;;3.97;2.50;;;;;;;10.40;78.68;102034.22;5070625;28;20418;-73
2022/03/14 08:04:10;;;;;;;;;;;;;;;10.44;79.53;102047.09;5063540;28;20048;-73
2022/03/14 08:06:41;;;;;;;6.35;2.38;;;;;;;10.50;78.09;102045.91;5073740;28;19920;-72
2022/03/14 08:09:09;;;;;;;3.15;2.35;;;;;;;10.63;78.78;102046.88;5079223;28;20088;-73
2022/03/14 08:11:48;;;;;;;8.40;2.28;;;;;;;10.66;77.90;102054.59;5073633;28;20093;-73
2022/03/14 08:14:15;;;;;;;7.95;2.42;;;;;;;10.74;77.27;102057.59;5071096;28;20132;-71
2022/03/14 08:16:48;;;;;;;6.78;3.05;;;;;;;10.82;76.62;102064.13;5075969;28;20047;-73
2022/03/14 08:19:20;;;;;;;2.28;1.08;;;;;;;10.91;75.18;102067.97;5079882;28;20059;-71
2022/03/14 08:21:49;;;;;;;2.30;1.88;;;;;;;10.91;76.55;102065.34;5074473;28;20064;-73
2022/03/14 08:24:19;;;;;;;9.55;1.88;;;;;;;11.05;75.74;102070.59;5086371;28;20126;-74
2022/03/14 08:26:49;;;;;;;4.28;2.45;;;;;;;11.09;74.40;102082.66;5082161;28;20040;-73
2022/03/14 08:29:22;;;;;;;3.28;1.58;;;;;;;11.12;74.97;102082.47;5078631;28;20059;-75
2022/03/14 08:31:51;;;;;;;4.95;2.55;;;;;;;11.36;74.25;102082.69;5082676;28;20141;-73
2022/03/14 08:34:37;;;;;;;3.80;2.03;;;;;;;11.51;72.98;102092.25;5060865;28;20131;-73
2022/03/14 08:37:05;;;;;;;8.63;1.50;;;;;;;11.65;71.60;102087.00;5081735;28;20052;-74
2022/03/14 08:39:45;;;;;;;2.15;1.38;;;;;;;11.48;72.78;102087.19;5079186;28;20059;-72
2022/03/14 08:42:12;;;;;;;2.85;1.65;;;;;;;11.38;72.49;102091.31;5080562;28;20044;-72
2022/03/14 08:44:42;;;;;;;3.13;1.95;;;;;;;11.48;72.01;102092.44;5071961;28;20044;-73
2022/03/14 08:47:09;;;;;;;3.50;1.88;;;;;;;11.45;71.61;102097.88;5074933;28;20040;-72
2022/03/14 08:49:46;;;;;;;2.20;1.55;;;;;;;11.37;71.78;102099.31;5072845;28;20062;-73
2022/03/14 08:52:14;;;;;;;4.28;2.20;;;;;;;11.66;71.62;102101.88;5079360;28;20047;-72
2022/03/14 08:54:40;;;;;;;1.75;1.08;;;;;;;11.78;70.56;102103.72;5073368;28;20033;-74
2022/03/14 08:57:09;;;;;;;2.60;1.58;;;;;;;11.99;69.11;102105.03;5076184;28;20046;-73
2022/03/14 08:59:35;;;;;;;4.60;1.70;;;;;;;11.87;68.65;102116.31;5078071;28;20052;-73
2022/03/14 09:02:02;;;;;;;2.72;1.83;;;;;;;11.69;69.33;102106.97;5077439;28;20068;-72
2022/03/14 09:04:39;;;;;;;4.80;1.73;;;;;;;11.65;69.00;102115.13;5059612;28;20067;-73
2022/03/14 09:07:08;;;;;;;8.98;2.10;;;;;;;11.79;69.11;102123.84;5072161;28;20051;-72
2022/03/14 09:09:40;;;;;;;1.85;1.08;;;;;;;11.78;68.84;102127.41;5057382;28;20040;-72
2022/03/14 09:12:10;;;;;;;4.10;1.20;;;;;;;11.82;67.55;102126.31;5070018;28;20044;-73
2022/03/14 09:14:42;;;;;;;8.05;1.58;;;;;;;12.21;66.75;102142.22;5078298;28;20122;-72
2022/03/14 09:17:09;;;;;;;2.60;1.55;;;;;;;12.56;65.95;102141.63;5080010;28;20405;-73
2022/03/14 09:19:37;;;;;;;5.07;2.13;;;;;;;12.47;65.21;102144.03;5061174;28;20048;-72
2022/03/14 09:22:04;;;;;;;2.53;1.25;;;;;;;12.48;65.52;102161.53;5079648;28;20071;-72
2022/03/14 09:24:45;;;;;;;3.38;1.55;;;;;;;12.50;64.02;102149.94;5086238;28;20060;-74
2022/03/14 09:27:12;;;;;;;4.63;2.15;;;;;;;12.75;64.79;102152.69;5087001;28;20039;-73
2022/03/14 09:29:39;;;;;;;5.93;2.15;;;;;;;12.81;63.35;102154.91;5061050;28;20070;-73
2022/03/14 09:32:08;;;;;;;3.72;2.17;;;;;;;12.91;63.50;102167.44;5076604;28;20495;-73
2022/03/14 09:34:38;;;;;;;4.07;1.65;;;;;;;13.01;63.50;102173.78;5077007;28;20704;-72
2022/03/14 09:37:09;;;;;;;8.73;1.75;;;;;;;13.98;61.39;102152.91;5089631;28;20076;-74
2022/03/14 09:39:50;;;;;;;7.03;2.30;;;;;;;15.12;57.58;102158.47;5079788;28;20121;-74
2022/03/14 09:42:22;;;;;;;3.10;2.10;;;;;;;15.25;56.40;102160.09;5052777;28;20055;-74
2022/03/14 09:44:53;;;;;;;6.13;2.53;;;;;;;14.68;57.41;102169.72;5054971;28;20067;-73
2022/03/14 09:47:23;;;;;;;3.35;1.83;;;;;;;14.11;58.25;102164.31;5075002;28;20058;-72
2022/03/14 09:49:54;;;;;;;5.22;2.13;;;;;;;14.24;59.68;102170.44;5084656;28;20048;-74
2022/03/14 09:52:21;;;;;;;5.93;2.22;;;;;;;13.69;59.35;102186.66;5076976;28;20041;-71
2022/03/14 09:54:55;;;;;;;5.15;2.25;;;;;;;13.47;61.63;102188.22;5077688;28;20127;-72
2022/03/14 09:57:23;;;;;;;3.85;2.22;;;;;;;13.68;60.97;102186.72;5079984;28;20036;-72
2022/03/14 09:59:54;;;;;;;4.72;2.55;;;;;;;14.13;60.32;102194.13;5082024;28;20044;-74
2022/03/14 10:02:39;;;;;;;2.72;1.90;;;;;;;14.43;58.14;102196.25;5074509;28;20047;-71
2022/03/14 10:05:09;;;;;;;4.93;2.63;;;;;;;14.48;56.85;102206.50;5073858;28;20946;-72
2022/03/14 10:07:43;;;;;;;5.03;2.42;;;;;;;14.23;58.35;102203.09;5080345;28;20051;-73
2022/03/14 10:10:14;;;;;;;3.53;1.90;;;;;;;14.92;56.92;102201.47;5067567;28;20111;-73
2022/03/14 10:12:44;;;;;;;1.05;0.60;;;;;;;14.99;55.31;102192.94;5077084;28;20068;-73
2022/03/14 10:15:28;;;;;;;9.63;3.15;;;;;;;14.00;57.85;102214.38;5072912;28;20048;-74
2022/03/14 10:17:59;;;;;;;2.60;1.50;;;;;;;14.18;58.49;102213.13;5080165;28;20085;-74
2022/03/14 10:20:55;;;;;;;6.50;2.03;;;;;;;13.92;59.97;102227.28;5078474;28;20062;-73
2022/03/14 10:23:30;;;;;;;8.23;2.20;;;;;;;13.60;59.58;102222.56;5077956;28;20072;-73
2022/03/14 10:26:11;;;;;;;3.97;2.35;;;;;;;13.44;61.34;102235.94;5077682;28;20036;-74
2022/03/14 10:28:38;;;;;;;3.40;1.92;;;;;;;13.55;60.29;102229.91;5082912;28;20044;-75
2022/03/14 10:31:08;;;;;;;5.00;1.98;;;;;;;13.89;59.02;102232.81;5078911;28;20052;-74
2022/03/14 10:33:35;;;;;;;5.05;2.45;;;;;;;13.69;60.07;102236.81;5079473;28;20028;-74
2022/03/14 10:36:02;;;;;;;5.47;1.95;;;;;;;13.74;59.86;102239.16;5082894;28;20399;-73
2022/03/14 10:41:26;;;;;;;3.65;1.92;;;;;;;13.42;61.00;102237.00;5094601;27;20383;-72
2022/03/14 10:43:52;;;;;;;6.45;2.15;;;;;;;13.49;60.64;102247.06;5086377;28;20036;-73
2022/03/14 10:46:26;;;;;;;5.72;2.47;;;;;;;13.54;61.47;102241.47;5070505;28;20048;-75
2022/03/14 10:48:53;;;;;;;3.55;1.92;;;;;;;13.63;60.64;102241.66;5077800;28;20553;-74
2022/03/14 10:51:20;;;;;;;4.03;2.20;;;;;;;13.36;61.88;102242.69;5077868;28;20054;-73
2022/03/14 10:53:47;;;;;;;6.15;2.42;;;;;;;13.41;63.01;102241.44;5074377;28;20051;-74
2022/03/14 10:56:28;;;;;;;5.05;1.90;;;;;;;13.66;61.80;102244.94;5051944;28;20078;-73
2022/03/14 10:58:57;;;;;;;5.80;2.20;;;;;;;13.89;59.65;102248.66;5070995;28;20047;-72
2022/03/14 11:02:00;;;;;;;4.75;2.03;;;;;;;13.91;59.49;102247.59;5085238;28;20047;-73
2022/03/14 11:04:44;;;;;;;2.60;1.85;;;;;;;13.69;60.68;102262.38;5089459;28;20041;-73
2022/03/14 11:07:10;;;;;;;5.45;2.70;;;;;;;13.20;62.23;102263.97;5082934;28;20064;-74
2022/03/14 11:09:42;;;;;;;4.78;1.85;;;;;;;13.05;63.44;102264.16;5074068;28;20530;-74
2022/03/14 11:12:12;;;;;;;4.75;2.00;;;;;;;13.07;64.58;102268.38;5077156;28;20079;-73
2022/03/14 11:14:42;;;;;;;3.60;2.25;;;;;;;13.23;63.16;102269.06;5074769;28;20045;-72
2022/03/14 11:17:17;;;;;;;4.97;2.30;;;;;;;13.34;63.03;102270.97;5077475;28;20045;-73
2022/03/14 11:19:44;;;;;;;2.80;2.10;;;;;;;13.80;60.85;102267.78;5064005;28;20499;-76
2022/03/14 11:22:14;;;;;;;4.85;2.15;;;;;;;13.72;60.50;102272.75;5080057;28;20055;-74
2022/03/14 11:24:45;;;;;;;3.70;1.77;;;;;;;13.77;59.59;102273.25;5072699;28;20078;-74
2022/03/14 11:27:22;;;;;;;2.00;1.52;;;;;;;13.95;58.68;102275.47;5074209;28;20052;-73
2022/03/14 11:29:50;;;;;;;4.32;1.85;;;;;;;14.55;56.48;102255.34;5074435;28;20044;-72
2022/03/14 11:32:19;;;;;;;2.92;2.15;;;;;;;15.05;54.37;102256.03;5081367;28;20049;-73
2022/03/14 11:34:56;;;;;;;4.60;2.05;;;;;;;14.99;54.18;102261.75;5069128;28;20047;-72
2022/03/14 11:37:31;;;;;;;3.60;2.45;;;;;;;14.80;54.70;102260.56;5084719;28;20055;-72
2022/03/14 11:40:09;;;;;;;4.57;2.13;;;;;;;14.28;57.31;102272.34;5082970;28;20066;-72
2022/03/14 11:42:40;;;;;;;3.47;2.40;;;;;;;14.14;57.27;102275.13;5076358;28;20036;-73
2022/03/14 11:45:10;;;;;;;5.45;1.70;;;;;;;13.97;57.49;102268.31;5090434;28;20046;-72
2022/03/14 11:47:47;;;;;;;5.85;2.10;;;;;;;14.22;57.50;102264.84;5081402;28;20040;-73
2022/03/14 11:50:16;;;;;;;3.20;2.00;;;;;;;14.60;56.55;102264.66;5085507;28;20381;-74
2022/03/14 11:52:50;;;;;;;6.25;2.15;;;;;;;14.42;56.05;102274.84;5052594;28;20048;-72